sensor_id;sensor_type;location;lat;lon;timestamp;temperature;humidity
68450;SHT30;55434;39.570;2.652;2022-12-18T00:00:42;12.38;88.82
68450;SHT30;55434;39.570;2.652;2022-12-18T00:03:08;12.35;88.81
68450;SHT30;55434;39.570;2.652;2022-12-18T00:05:35;12.38;88.89
68450;SHT30;55434;39.570;2.652;2022-12-18T00:08:00;12.39;88.72
68450;SHT30;55434;39.570;2.652;2022-12-18T00:10:28;12.40;88.68
68450;SHT30;55434;39.570;2.652;2022-12-18T00:12:53;12.42;88.61
68450;SHT30;55434;39.570;2.652;2022-12-18T00:15:19;12.42;88.59
68450;SHT30;55434;39.570;2.652;2022-12-18T00:17:46;12.43;88.61
68450;SHT30;55434;39.570;2.652;2022-12-18T00:20:11;12.48;88.57
68450;SHT30;55434;39.570;2.652;2022-12-18T00:22:37;12.48;88.47
68450;SHT30;55434;39.570;2.652;2022-12-18T00:25:03;12.50;88.44
68450;SHT30;55434;39.570;2.652;2022-12-18T00:27:29;12.56;88.32
68450;SHT30;55434;39.570;2.652;2022-12-18T00:29:54;12.60;88.10
68450;SHT30;55434;39.570;2.652;2022-12-18T00:32:20;12.60;88.17
68450;SHT30;55434;39.570;2.652;2022-12-18T00:34:45;12.60;88.17
68450;SHT30;55434;39.570;2.652;2022-12-18T00:37:11;12.63;88.23
68450;SHT30;55434;39.570;2.652;2022-12-18T00:39:37;12.60;88.44
68450;SHT30;55434;39.570;2.652;2022-12-18T00:42:02;12.66;88.21
68450;SHT30;55434;39.570;2.652;2022-12-18T00:44:47;12.63;88.67
68450;SHT30;55434;39.570;2.652;2022-12-18T00:47:12;12.69;88.56
68450;SHT30;55434;39.570;2.652;2022-12-18T00:49:38;12.73;88.51
68450;SHT30;55434;39.570;2.652;2022-12-18T00:52:04;12.81;88.30
68450;SHT30;55434;39.570;2.652;2022-12-18T00:54:29;12.87;88.08
68450;SHT30;55434;39.570;2.652;2022-12-18T00:56:55;12.93;87.84
68450;SHT30;55434;39.570;2.652;2022-12-18T00:59:21;12.97;87.80
68450;SHT30;55434;39.570;2.652;2022-12-18T01:01:47;12.97;87.63
68450;SHT30;55434;39.570;2.652;2022-12-18T01:04:14;12.96;87.95
68450;SHT30;55434;39.570;2.652;2022-12-18T01:06:40;12.91;87.81
68450;SHT30;55434;39.570;2.652;2022-12-18T01:09:05;12.93;87.70
68450;SHT30;55434;39.570;2.652;2022-12-18T01:11:31;12.93;87.86
68450;SHT30;55434;39.570;2.652;2022-12-18T01:13:57;12.91;87.70
68450;SHT30;55434;39.570;2.652;2022-12-18T01:16:22;12.93;87.78
68450;SHT30;55434;39.570;2.652;2022-12-18T01:18:53;12.91;88.07
68450;SHT30;55434;39.570;2.652;2022-12-18T01:21:20;12.89;87.96
68450;SHT30;55434;39.570;2.652;2022-12-18T01:23:46;12.89;87.94
68450;SHT30;55434;39.570;2.652;2022-12-18T01:26:15;12.87;87.97
68450;SHT30;55434;39.570;2.652;2022-12-18T01:28:42;12.84;88.04
68450;SHT30;55434;39.570;2.652;2022-12-18T01:31:17;12.79;88.18
68450;SHT30;55434;39.570;2.652;2022-12-18T01:33:43;12.79;88.29
68450;SHT30;55434;39.570;2.652;2022-12-18T01:36:15;12.76;88.28
68450;SHT30;55434;39.570;2.652;2022-12-18T01:38:41;12.76;88.17
68450;SHT30;55434;39.570;2.652;2022-12-18T01:41:08;12.72;88.16
68450;SHT30;55434;39.570;2.652;2022-12-18T01:43:51;12.64;87.88
68450;SHT30;55434;39.570;2.652;2022-12-18T01:46:19;12.59;87.90
68450;SHT30;55434;39.570;2.652;2022-12-18T01:48:49;12.57;87.75
68450;SHT30;55434;39.570;2.652;2022-12-18T01:51:16;12.50;88.01
68450;SHT30;55434;39.570;2.652;2022-12-18T01:53:43;12.52;88.04
68450;SHT30;55434;39.570;2.652;2022-12-18T01:56:14;12.39;88.63
68450;SHT30;55434;39.570;2.652;2022-12-18T02:01:14;12.49;87.92
68450;SHT30;55434;39.570;2.652;2022-12-18T02:03:44;12.49;88.18
68450;SHT30;55434;39.570;2.652;2022-12-18T02:06:18;12.49;87.83
68450;SHT30;55434;39.570;2.652;2022-12-18T02:08:55;12.50;88.07
68450;SHT30;55434;39.570;2.652;2022-12-18T02:11:36;12.43;88.26
68450;SHT30;55434;39.570;2.652;2022-12-18T02:22:29;12.19;88.85
68450;SHT30;55434;39.570;2.652;2022-12-18T02:25:25;11.92;89.75
68450;SHT30;55434;39.570;2.652;2022-12-18T02:27:56;11.77;90.63
68450;SHT30;55434;39.570;2.652;2022-12-18T02:30:26;12.17;89.69
68450;SHT30;55434;39.570;2.652;2022-12-18T02:32:54;11.91;89.69
68450;SHT30;55434;39.570;2.652;2022-12-18T02:35:26;11.77;90.59
68450;SHT30;55434;39.570;2.652;2022-12-18T02:37:53;11.78;90.93
68450;SHT30;55434;39.570;2.652;2022-12-18T02:40:20;11.79;90.37
68450;SHT30;55434;39.570;2.652;2022-12-18T02:42:48;11.64;90.96
68450;SHT30;55434;39.570;2.652;2022-12-18T02:45:14;11.60;91.17
68450;SHT30;55434;39.570;2.652;2022-12-18T02:47:42;11.54;91.31
68450;SHT30;55434;39.570;2.652;2022-12-18T02:53:15;11.84;89.98
68450;SHT30;55434;39.570;2.652;2022-12-18T02:55:54;11.88;89.78
68450;SHT30;55434;39.570;2.652;2022-12-18T03:01:21;11.77;90.02
68450;SHT30;55434;39.570;2.652;2022-12-18T03:04:01;11.47;91.34
68450;SHT30;55434;39.570;2.652;2022-12-18T03:06:33;11.33;91.83
68450;SHT30;55434;39.570;2.652;2022-12-18T03:09:19;11.30;91.99
68450;SHT30;55434;39.570;2.652;2022-12-18T03:11:53;11.24;92.16
68450;SHT30;55434;39.570;2.652;2022-12-18T03:14:38;11.22;92.22
68450;SHT30;55434;39.570;2.652;2022-12-18T03:17:09;11.24;92.26
68450;SHT30;55434;39.570;2.652;2022-12-18T03:19:37;11.30;92.29
68450;SHT30;55434;39.570;2.652;2022-12-18T03:22:05;11.28;92.16
68450;SHT30;55434;39.570;2.652;2022-12-18T03:24:33;11.28;92.15
68450;SHT30;55434;39.570;2.652;2022-12-18T03:27:01;11.36;92.22
68450;SHT30;55434;39.570;2.652;2022-12-18T03:29:34;11.34;91.91
68450;SHT30;55434;39.570;2.652;2022-12-18T03:32:12;11.40;91.70
68450;SHT30;55434;39.570;2.652;2022-12-18T03:34:42;11.36;91.60
68450;SHT30;55434;39.570;2.652;2022-12-18T03:37:08;11.33;91.70
68450;SHT30;55434;39.570;2.652;2022-12-18T03:39:35;11.37;92.05
68450;SHT30;55434;39.570;2.652;2022-12-18T03:42:15;11.37;91.38
68450;SHT30;55434;39.570;2.652;2022-12-18T03:47:58;11.37;91.38
68450;SHT30;55434;39.570;2.652;2022-12-18T03:50:37;11.37;91.06
68450;SHT30;55434;39.570;2.652;2022-12-18T03:56:08;11.26;91.63
68450;SHT30;55434;39.570;2.652;2022-12-18T03:58:35;11.24;91.63
68450;SHT30;55434;39.570;2.652;2022-12-18T04:01:05;11.16;91.68
68450;SHT30;55434;39.570;2.652;2022-12-18T04:03:32;11.53;91.42
68450;SHT30;55434;39.570;2.652;2022-12-18T04:06:00;11.51;90.12
68450;SHT30;55434;39.570;2.652;2022-12-18T04:08:26;11.63;90.18
68450;SHT30;55434;39.570;2.652;2022-12-18T04:10:53;11.54;89.89
68450;SHT30;55434;39.570;2.652;2022-12-18T04:13:38;11.58;89.64
68450;SHT30;55434;39.570;2.652;2022-12-18T04:16:04;11.50;89.93
68450;SHT30;55434;39.570;2.652;2022-12-18T04:18:30;11.47;90.04
68450;SHT30;55434;39.570;2.652;2022-12-18T04:20:56;11.15;91.38
68450;SHT30;55434;39.570;2.652;2022-12-18T04:23:21;11.24;90.86
68450;SHT30;55434;39.570;2.652;2022-12-18T04:25:47;11.27;91.03
68450;SHT30;55434;39.570;2.652;2022-12-18T04:28:13;11.27;90.80
68450;SHT30;55434;39.570;2.652;2022-12-18T04:30:39;11.07;91.43
68450;SHT30;55434;39.570;2.652;2022-12-18T04:33:11;11.07;91.20
68450;SHT30;55434;39.570;2.652;2022-12-18T04:35:38;10.99;91.41
68450;SHT30;55434;39.570;2.652;2022-12-18T04:38:05;10.97;91.49
68450;SHT30;55434;39.570;2.652;2022-12-18T04:40:32;11.33;90.48
68450;SHT30;55434;39.570;2.652;2022-12-18T04:43:00;11.34;89.54
68450;SHT30;55434;39.570;2.652;2022-12-18T04:45:26;11.47;89.64
68450;SHT30;55434;39.570;2.652;2022-12-18T04:47:52;11.53;88.80
68450;SHT30;55434;39.570;2.652;2022-12-18T04:50:17;11.34;89.01
68450;SHT30;55434;39.570;2.652;2022-12-18T04:52:43;11.27;89.67
68450;SHT30;55434;39.570;2.652;2022-12-18T04:55:08;11.36;89.21
68450;SHT30;55434;39.570;2.652;2022-12-18T04:57:34;11.09;90.59
68450;SHT30;55434;39.570;2.652;2022-12-18T05:00:00;10.99;90.61
68450;SHT30;55434;39.570;2.652;2022-12-18T05:02:25;10.95;90.70
68450;SHT30;55434;39.570;2.652;2022-12-18T05:04:51;11.05;91.11
68450;SHT30;55434;39.570;2.652;2022-12-18T05:07:17;10.92;90.77
68450;SHT30;55434;39.570;2.652;2022-12-18T05:09:42;10.91;90.87
68450;SHT30;55434;39.570;2.652;2022-12-18T05:12:08;10.85;90.93
68450;SHT30;55434;39.570;2.652;2022-12-18T05:14:33;10.83;90.85
68450;SHT30;55434;39.570;2.652;2022-12-18T05:16:59;10.85;90.91
68450;SHT30;55434;39.570;2.652;2022-12-18T05:19:24;10.85;90.84
68450;SHT30;55434;39.570;2.652;2022-12-18T05:21:50;10.83;91.02
68450;SHT30;55434;39.570;2.652;2022-12-18T05:24:16;10.76;91.12
68450;SHT30;55434;39.570;2.652;2022-12-18T05:26:41;10.72;91.17
68450;SHT30;55434;39.570;2.652;2022-12-18T05:29:07;10.73;90.97
68450;SHT30;55434;39.570;2.652;2022-12-18T05:31:33;10.66;91.31
68450;SHT30;55434;39.570;2.652;2022-12-18T05:33:58;10.73;91.02
68450;SHT30;55434;39.570;2.652;2022-12-18T05:36:24;10.73;90.85
68450;SHT30;55434;39.570;2.652;2022-12-18T05:38:49;10.76;90.96
68450;SHT30;55434;39.570;2.652;2022-12-18T05:41:15;10.75;90.81
68450;SHT30;55434;39.570;2.652;2022-12-18T05:43:41;10.78;90.62
68450;SHT30;55434;39.570;2.652;2022-12-18T05:46:11;10.80;90.61
68450;SHT30;55434;39.570;2.652;2022-12-18T05:48:37;10.83;90.66
68450;SHT30;55434;39.570;2.652;2022-12-18T05:51:05;10.85;90.41
68450;SHT30;55434;39.570;2.652;2022-12-18T05:53:31;10.83;90.40
68450;SHT30;55434;39.570;2.652;2022-12-18T05:56:18;10.88;90.28
68450;SHT30;55434;39.570;2.652;2022-12-18T05:58:45;10.89;90.18
68450;SHT30;55434;39.570;2.652;2022-12-18T06:01:21;10.85;90.10
68450;SHT30;55434;39.570;2.652;2022-12-18T06:03:47;10.88;90.08
68450;SHT30;55434;39.570;2.652;2022-12-18T06:06:18;10.89;90.10
68450;SHT30;55434;39.570;2.652;2022-12-18T06:08:44;10.89;90.09
68450;SHT30;55434;39.570;2.652;2022-12-18T06:11:10;10.88;89.94
68450;SHT30;55434;39.570;2.652;2022-12-18T06:13:37;10.88;90.06
68450;SHT30;55434;39.570;2.652;2022-12-18T06:16:06;10.92;90.34
68450;SHT30;55434;39.570;2.652;2022-12-18T06:18:32;10.85;89.97
68450;SHT30;55434;39.570;2.652;2022-12-18T06:20:59;10.76;89.99
68450;SHT30;55434;39.570;2.652;2022-12-18T06:23:25;10.78;90.07
68450;SHT30;55434;39.570;2.652;2022-12-18T06:25:50;10.78;90.11
68450;SHT30;55434;39.570;2.652;2022-12-18T06:28:16;10.78;90.07
68450;SHT30;55434;39.570;2.652;2022-12-18T06:30:46;10.80;90.08
68450;SHT30;55434;39.570;2.652;2022-12-18T06:33:11;10.82;90.05
68450;SHT30;55434;39.570;2.652;2022-12-18T06:35:37;10.82;89.97
68450;SHT30;55434;39.570;2.652;2022-12-18T06:38:03;10.79;89.93
68450;SHT30;55434;39.570;2.652;2022-12-18T06:40:29;10.76;89.96
68450;SHT30;55434;39.570;2.652;2022-12-18T06:42:54;10.75;89.99
68450;SHT30;55434;39.570;2.652;2022-12-18T06:45:20;10.72;89.92
68450;SHT30;55434;39.570;2.652;2022-12-18T06:47:46;10.72;89.88
68450;SHT30;55434;39.570;2.652;2022-12-18T06:50:12;10.71;90.06
68450;SHT30;55434;39.570;2.652;2022-12-18T06:52:38;10.71;89.76
68450;SHT30;55434;39.570;2.652;2022-12-18T06:55:06;10.73;89.51
68450;SHT30;55434;39.570;2.652;2022-12-18T06:57:33;10.68;89.62
68450;SHT30;55434;39.570;2.652;2022-12-18T06:59:59;10.62;89.73
68450;SHT30;55434;39.570;2.652;2022-12-18T07:02:24;10.75;90.11
68450;SHT30;55434;39.570;2.652;2022-12-18T07:04:50;10.64;89.37
68450;SHT30;55434;39.570;2.652;2022-12-18T07:07:16;10.62;89.53
68450;SHT30;55434;39.570;2.652;2022-12-18T07:09:41;10.64;89.39
68450;SHT30;55434;39.570;2.652;2022-12-18T07:12:07;10.64;89.42
68450;SHT30;55434;39.570;2.652;2022-12-18T07:14:33;10.64;89.34
68450;SHT30;55434;39.570;2.652;2022-12-18T07:16:59;10.62;89.32
68450;SHT30;55434;39.570;2.652;2022-12-18T07:19:24;10.54;89.32
68450;SHT30;55434;39.570;2.652;2022-12-18T07:21:50;10.55;89.48
68450;SHT30;55434;39.570;2.652;2022-12-18T07:24:16;10.80;91.25
68450;SHT30;55434;39.570;2.652;2022-12-18T07:26:42;10.71;89.20
68450;SHT30;55434;39.570;2.652;2022-12-18T07:29:08;10.83;89.41
68450;SHT30;55434;39.570;2.652;2022-12-18T07:31:33;10.89;88.93
68450;SHT30;55434;39.570;2.652;2022-12-18T07:33:59;10.88;88.71
68450;SHT30;55434;39.570;2.652;2022-12-18T07:36:25;10.82;88.52
68450;SHT30;55434;39.570;2.652;2022-12-18T07:38:51;10.86;88.81
68450;SHT30;55434;39.570;2.652;2022-12-18T07:41:18;10.79;88.62
68450;SHT30;55434;39.570;2.652;2022-12-18T07:43:44;10.76;88.80
68450;SHT30;55434;39.570;2.652;2022-12-18T07:46:11;10.72;88.71
68450;SHT30;55434;39.570;2.652;2022-12-18T07:48:39;10.71;88.72
68450;SHT30;55434;39.570;2.652;2022-12-18T07:51:06;10.68;88.87
68450;SHT30;55434;39.570;2.652;2022-12-18T07:53:33;10.80;88.54
68450;SHT30;55434;39.570;2.652;2022-12-18T07:56:01;10.78;88.58
68450;SHT30;55434;39.570;2.652;2022-12-18T07:58:28;10.91;88.40
68450;SHT30;55434;39.570;2.652;2022-12-18T08:00:54;11.00;88.73
68450;SHT30;55434;39.570;2.652;2022-12-18T08:03:20;11.03;88.37
68450;SHT30;55434;39.570;2.652;2022-12-18T08:05:46;11.06;88.53
68450;SHT30;55434;39.570;2.652;2022-12-18T08:08:13;11.07;88.08
68450;SHT30;55434;39.570;2.652;2022-12-18T08:10:39;11.05;88.17
68450;SHT30;55434;39.570;2.652;2022-12-18T08:13:05;11.15;88.16
68450;SHT30;55434;39.570;2.652;2022-12-18T08:15:31;11.10;88.19
68450;SHT30;55434;39.570;2.652;2022-12-18T08:17:57;11.16;88.36
68450;SHT30;55434;39.570;2.652;2022-12-18T08:20:22;11.19;88.17
68450;SHT30;55434;39.570;2.652;2022-12-18T08:22:48;11.26;88.07
68450;SHT30;55434;39.570;2.652;2022-12-18T08:25:14;11.36;87.85
68450;SHT30;55434;39.570;2.652;2022-12-18T08:27:39;11.44;87.66
68450;SHT30;55434;39.570;2.652;2022-12-18T08:30:06;11.60;87.35
68450;SHT30;55434;39.570;2.652;2022-12-18T08:32:31;11.61;87.10
68450;SHT30;55434;39.570;2.652;2022-12-18T08:34:58;11.68;87.08
68450;SHT30;55434;39.570;2.652;2022-12-18T08:37:24;11.84;86.78
68450;SHT30;55434;39.570;2.652;2022-12-18T08:39:50;11.94;86.45
68450;SHT30;55434;39.570;2.652;2022-12-18T08:42:16;12.01;86.34
68450;SHT30;55434;39.570;2.652;2022-12-18T08:45:00;12.15;85.90
68450;SHT30;55434;39.570;2.652;2022-12-18T08:47:26;12.39;85.44
68450;SHT30;55434;39.570;2.652;2022-12-18T08:49:52;12.46;84.89
68450;SHT30;55434;39.570;2.652;2022-12-18T08:52:18;12.42;84.97
68450;SHT30;55434;39.570;2.652;2022-12-18T08:54:43;12.50;84.99
68450;SHT30;55434;39.570;2.652;2022-12-18T08:57:09;12.55;84.92
68450;SHT30;55434;39.570;2.652;2022-12-18T08:59:35;12.77;84.69
68450;SHT30;55434;39.570;2.652;2022-12-18T09:02:00;12.89;84.04
68450;SHT30;55434;39.570;2.652;2022-12-18T09:04:28;13.03;83.42
68450;SHT30;55434;39.570;2.652;2022-12-18T09:06:55;13.08;83.09
68450;SHT30;55434;39.570;2.652;2022-12-18T09:09:21;13.13;82.91
68450;SHT30;55434;39.570;2.652;2022-12-18T09:11:47;13.24;82.47
68450;SHT30;55434;39.570;2.652;2022-12-18T09:14:12;13.31;82.28
68450;SHT30;55434;39.570;2.652;2022-12-18T09:16:38;13.41;81.84
68450;SHT30;55434;39.570;2.652;2022-12-18T09:19:04;13.57;81.17
68450;SHT30;55434;39.570;2.652;2022-12-18T09:21:33;13.66;80.88
68450;SHT30;55434;39.570;2.652;2022-12-18T09:24:00;13.83;80.88
68450;SHT30;55434;39.570;2.652;2022-12-18T09:26:26;13.98;80.35
68450;SHT30;55434;39.570;2.652;2022-12-18T09:28:52;14.09;80.19
68450;SHT30;55434;39.570;2.652;2022-12-18T09:31:20;14.17;79.96
68450;SHT30;55434;39.570;2.652;2022-12-18T09:33:46;14.25;80.10
68450;SHT30;55434;39.570;2.652;2022-12-18T09:36:14;14.37;80.38
68450;SHT30;55434;39.570;2.652;2022-12-18T09:38:40;14.48;80.02
68450;SHT30;55434;39.570;2.652;2022-12-18T09:43:53;14.66;80.65
68450;SHT30;55434;39.570;2.652;2022-12-18T09:46:32;14.76;82.20
68450;SHT30;55434;39.570;2.652;2022-12-18T09:49:02;14.81;82.01
68450;SHT30;55434;39.570;2.652;2022-12-18T09:51:35;14.88;81.70
68450;SHT30;55434;39.570;2.652;2022-12-18T09:54:05;14.98;82.61
68450;SHT30;55434;39.570;2.652;2022-12-18T09:56:36;15.04;82.40
68450;SHT30;55434;39.570;2.652;2022-12-18T09:59:03;15.14;81.57
68450;SHT30;55434;39.570;2.652;2022-12-18T10:01:31;15.24;82.77
68450;SHT30;55434;39.570;2.652;2022-12-18T10:03:57;15.32;81.61
68450;SHT30;55434;39.570;2.652;2022-12-18T10:06:25;15.40;81.37
68450;SHT30;55434;39.570;2.652;2022-12-18T10:12:02;15.56;81.34
68450;SHT30;55434;39.570;2.652;2022-12-18T10:25:19;17.30;76.70
68450;SHT30;55434;39.570;2.652;2022-12-18T10:27:46;18.62;72.32
68450;SHT30;55434;39.570;2.652;2022-12-18T10:30:15;19.69;68.65
68450;SHT30;55434;39.570;2.652;2022-12-18T10:32:41;20.54;66.07
68450;SHT30;55434;39.570;2.652;2022-12-18T10:35:15;21.79;62.31
68450;SHT30;55434;39.570;2.652;2022-12-18T10:38:06;21.97;61.61
68450;SHT30;55434;39.570;2.652;2022-12-18T10:40:34;21.48;62.59
68450;SHT30;55434;39.570;2.652;2022-12-18T10:43:13;21.10;63.92
68450;SHT30;55434;39.570;2.652;2022-12-18T10:45:40;21.15;63.67
68450;SHT30;55434;39.570;2.652;2022-12-18T10:48:19;21.95;61.45
68450;SHT30;55434;39.570;2.652;2022-12-18T10:50:48;23.12;58.99
68450;SHT30;55434;39.570;2.652;2022-12-18T10:53:27;24.03;56.21
68450;SHT30;55434;39.570;2.652;2022-12-18T10:55:56;24.57;54.79
68450;SHT30;55434;39.570;2.652;2022-12-18T10:58:34;24.49;54.58
68450;SHT30;55434;39.570;2.652;2022-12-18T11:01:15;24.54;54.36
68450;SHT30;55434;39.570;2.652;2022-12-18T11:06:17;24.11;55.88
68450;SHT30;55434;39.570;2.652;2022-12-18T11:08:56;24.21;55.64
68450;SHT30;55434;39.570;2.652;2022-12-18T11:11:23;23.94;56.33
68450;SHT30;55434;39.570;2.652;2022-12-18T11:14:05;23.90;56.57
68450;SHT30;55434;39.570;2.652;2022-12-18T11:16:42;24.27;55.96
68450;SHT30;55434;39.570;2.652;2022-12-18T11:21:54;24.78;54.79
68450;SHT30;55434;39.570;2.652;2022-12-18T11:24:31;25.02;54.24
68450;SHT30;55434;39.570;2.652;2022-12-18T11:27:15;25.18;53.71
68450;SHT30;55434;39.570;2.652;2022-12-18T11:29:41;25.32;53.17
68450;SHT30;55434;39.570;2.652;2022-12-18T11:32:24;25.12;53.67
68450;SHT30;55434;39.570;2.652;2022-12-18T11:37:28;25.08;53.83
68450;SHT30;55434;39.570;2.652;2022-12-18T11:40:06;25.22;53.73
68450;SHT30;55434;39.570;2.652;2022-12-18T11:50:16;24.67;54.84
68450;SHT30;55434;39.570;2.652;2022-12-18T11:52:43;24.27;56.12
68450;SHT30;55434;39.570;2.652;2022-12-18T11:55:14;24.69;54.85
68450;SHT30;55434;39.570;2.652;2022-12-18T12:00:19;24.48;55.52
68450;SHT30;55434;39.570;2.652;2022-12-18T12:14:35;25.23;53.77
68450;SHT30;55434;39.570;2.652;2022-12-18T12:20:00;24.55;54.88
68450;SHT30;55434;39.570;2.652;2022-12-18T12:25:18;24.13;55.86
68450;SHT30;55434;39.570;2.652;2022-12-18T12:33:30;23.53;57.75
68450;SHT30;55434;39.570;2.652;2022-12-18T12:36:22;23.33;58.98
68450;SHT30;55434;39.570;2.652;2022-12-18T12:39:14;23.49;58.57
68450;SHT30;55434;39.570;2.652;2022-12-18T12:41:42;23.39;59.09
68450;SHT30;55434;39.570;2.652;2022-12-18T12:44:32;22.96;59.72
68450;SHT30;55434;39.570;2.652;2022-12-18T12:47:11;22.57;61.43
68450;SHT30;55434;39.570;2.652;2022-12-18T12:49:38;22.47;61.95
68450;SHT30;55434;39.570;2.652;2022-12-18T12:52:07;22.75;61.15
68450;SHT30;55434;39.570;2.652;2022-12-18T12:54:36;22.79;61.28
68450;SHT30;55434;39.570;2.652;2022-12-18T12:57:23;22.65;61.51
68450;SHT30;55434;39.570;2.652;2022-12-18T13:00:12;22.43;61.17
68450;SHT30;55434;39.570;2.652;2022-12-18T13:05:40;22.14;62.26
68450;SHT30;55434;39.570;2.652;2022-12-18T13:08:11;21.99;63.24
68450;SHT30;55434;39.570;2.652;2022-12-18T13:10:41;21.66;64.16
68450;SHT30;55434;39.570;2.652;2022-12-18T13:13:14;21.55;64.96
68450;SHT30;55434;39.570;2.652;2022-12-18T13:15:46;21.20;66.05
68450;SHT30;55434;39.570;2.652;2022-12-18T13:18:23;21.17;66.17
68450;SHT30;55434;39.570;2.652;2022-12-18T13:23:29;20.43;68.44
68450;SHT30;55434;39.570;2.652;2022-12-18T13:34:19;19.75;70.72
68450;SHT30;55434;39.570;2.652;2022-12-18T13:36:46;19.91;70.80
68450;SHT30;55434;39.570;2.652;2022-12-18T13:42:36;20.47;68.98
68450;SHT30;55434;39.570;2.652;2022-12-18T13:44:40;20.16;69.28
68450;SHT30;55434;39.570;2.652;2022-12-18T13:49:50;19.67;71.65
68450;SHT30;55434;39.570;2.652;2022-12-18T13:52:28;19.57;72.15
68450;SHT30;55434;39.570;2.652;2022-12-18T13:54:56;19.34;72.35
68450;SHT30;55434;39.570;2.652;2022-12-18T13:57:34;19.46;72.23
68450;SHT30;55434;39.570;2.652;2022-12-18T14:02:49;19.68;71.94
68450;SHT30;55434;39.570;2.652;2022-12-18T14:05:23;19.69;71.93
68450;SHT30;55434;39.570;2.652;2022-12-18T14:07:49;19.48;72.57
68450;SHT30;55434;39.570;2.652;2022-12-18T14:10:15;19.47;72.77
68450;SHT30;55434;39.570;2.652;2022-12-18T14:12:45;19.46;73.25
68450;SHT30;55434;39.570;2.652;2022-12-18T14:15:31;19.23;73.89
68450;SHT30;55434;39.570;2.652;2022-12-18T14:17:59;18.90;74.68
68450;SHT30;55434;39.570;2.652;2022-12-18T14:20:27;19.21;74.47
68450;SHT30;55434;39.570;2.652;2022-12-18T14:22:57;19.51;73.68
68450;SHT30;55434;39.570;2.652;2022-12-18T14:25:24;19.69;72.98
68450;SHT30;55434;39.570;2.652;2022-12-18T14:27:52;19.44;74.03
68450;SHT30;55434;39.570;2.652;2022-12-18T14:30:31;19.16;75.06
68450;SHT30;55434;39.570;2.652;2022-12-18T14:35:27;19.08;75.24
68450;SHT30;55434;39.570;2.652;2022-12-18T14:37:52;18.93;76.36
68450;SHT30;55434;39.570;2.652;2022-12-18T14:40:18;18.85;76.51
68450;SHT30;55434;39.570;2.652;2022-12-18T14:42:44;18.92;76.56
68450;SHT30;55434;39.570;2.652;2022-12-18T14:45:36;18.86;76.48
68450;SHT30;55434;39.570;2.652;2022-12-18T14:48:48;18.86;75.87
68450;SHT30;55434;39.570;2.652;2022-12-18T14:50:57;18.93;76.11
68450;SHT30;55434;39.570;2.652;2022-12-18T14:53:48;18.92;76.44
68450;SHT30;55434;39.570;2.652;2022-12-18T14:56:24;18.90;76.55
68450;SHT30;55434;39.570;2.652;2022-12-18T14:59:06;18.95;76.59
68450;SHT30;55434;39.570;2.652;2022-12-18T15:01:51;18.97;76.28
68450;SHT30;55434;39.570;2.652;2022-12-18T15:04:38;18.96;76.50
68450;SHT30;55434;39.570;2.652;2022-12-18T15:07:20;18.93;76.46
68450;SHT30;55434;39.570;2.652;2022-12-18T15:12:48;18.87;76.93
68450;SHT30;55434;39.570;2.652;2022-12-18T15:25:48;18.15;79.97
68450;SHT30;55434;39.570;2.652;2022-12-18T15:31:05;18.15;80.14
68450;SHT30;55434;39.570;2.652;2022-12-18T15:33:36;18.25;80.15
68450;SHT30;55434;39.570;2.652;2022-12-18T15:36:10;18.19;80.31
68450;SHT30;55434;39.570;2.652;2022-12-18T15:38:36;18.06;80.87
68450;SHT30;55434;39.570;2.652;2022-12-18T15:41:02;18.06;80.31
68450;SHT30;55434;39.570;2.652;2022-12-18T15:43:28;18.09;80.15
68450;SHT30;55434;39.570;2.652;2022-12-18T15:46:04;17.94;79.87
68450;SHT30;55434;39.570;2.652;2022-12-18T15:48:33;17.97;79.84
68450;SHT30;55434;39.570;2.652;2022-12-18T15:50:59;17.88;79.90
68450;SHT30;55434;39.570;2.652;2022-12-18T15:53:29;17.84;80.11
68450;SHT30;55434;39.570;2.652;2022-12-18T15:55:55;17.75;80.25
68450;SHT30;55434;39.570;2.652;2022-12-18T15:58:47;17.70;80.19
68450;SHT30;55434;39.570;2.652;2022-12-18T16:01:13;17.42;81.04
68450;SHT30;55434;39.570;2.652;2022-12-18T16:03:39;17.16;81.89
68450;SHT30;55434;39.570;2.652;2022-12-18T16:06:05;17.02;82.47
68450;SHT30;55434;39.570;2.652;2022-12-18T16:08:31;16.99;82.87
68450;SHT30;55434;39.570;2.652;2022-12-18T16:10:57;17.02;82.91
68450;SHT30;55434;39.570;2.652;2022-12-18T16:13:23;16.91;82.78
68450;SHT30;55434;39.570;2.652;2022-12-18T16:15:49;16.82;81.59
68450;SHT30;55434;39.570;2.652;2022-12-18T16:18:15;16.73;81.80
68450;SHT30;55434;39.570;2.652;2022-12-18T16:20:40;16.68;81.88
68450;SHT30;55434;39.570;2.652;2022-12-18T16:23:06;16.60;82.17
68450;SHT30;55434;39.570;2.652;2022-12-18T16:25:33;16.58;82.18
68450;SHT30;55434;39.570;2.652;2022-12-18T16:27:58;16.55;82.39
68450;SHT30;55434;39.570;2.652;2022-12-18T16:30:30;16.44;82.56
68450;SHT30;55434;39.570;2.652;2022-12-18T16:32:56;16.41;82.78
68450;SHT30;55434;39.570;2.652;2022-12-18T16:35:23;16.40;83.03
68450;SHT30;55434;39.570;2.652;2022-12-18T16:37:50;16.38;83.19
68450;SHT30;55434;39.570;2.652;2022-12-18T16:40:17;16.32;83.62
68450;SHT30;55434;39.570;2.652;2022-12-18T16:42:44;16.28;83.87
68450;SHT30;55434;39.570;2.652;2022-12-18T16:45:15;16.25;84.22
68450;SHT30;55434;39.570;2.652;2022-12-18T16:47:42;16.22;84.22
68450;SHT30;55434;39.570;2.652;2022-12-18T16:50:09;16.18;84.67
68450;SHT30;55434;39.570;2.652;2022-12-18T16:52:34;16.18;84.85
68450;SHT30;55434;39.570;2.652;2022-12-18T16:55:01;16.17;85.04
68450;SHT30;55434;39.570;2.652;2022-12-18T16:57:26;16.13;85.34
68450;SHT30;55434;39.570;2.652;2022-12-18T16:59:52;16.10;85.50
68450;SHT30;55434;39.570;2.652;2022-12-18T17:02:23;16.10;85.56
68450;SHT30;55434;39.570;2.652;2022-12-18T17:04:49;16.06;85.68
68450;SHT30;55434;39.570;2.652;2022-12-18T17:07:15;16.00;85.81
68450;SHT30;55434;39.570;2.652;2022-12-18T17:09:41;16.01;85.76
68450;SHT30;55434;39.570;2.652;2022-12-18T17:12:07;16.00;85.75
68450;SHT30;55434;39.570;2.652;2022-12-18T17:14:34;15.99;85.94
68450;SHT30;55434;39.570;2.652;2022-12-18T17:17:00;15.96;86.11
68450;SHT30;55434;39.570;2.652;2022-12-18T17:19:26;15.93;86.17
68450;SHT30;55434;39.570;2.652;2022-12-18T17:21:53;15.90;86.41
68450;SHT30;55434;39.570;2.652;2022-12-18T17:24:19;15.86;86.52
68450;SHT30;55434;39.570;2.652;2022-12-18T17:26:45;15.87;86.62
68450;SHT30;55434;39.570;2.652;2022-12-18T17:29:18;15.85;86.61
68450;SHT30;55434;39.570;2.652;2022-12-18T17:31:45;15.86;86.76
68450;SHT30;55434;39.570;2.652;2022-12-18T17:34:11;15.85;86.70
68450;SHT30;55434;39.570;2.652;2022-12-18T17:36:37;15.79;87.01
68450;SHT30;55434;39.570;2.652;2022-12-18T17:39:05;15.76;87.15
68450;SHT30;55434;39.570;2.652;2022-12-18T17:41:31;15.69;87.37
68450;SHT30;55434;39.570;2.652;2022-12-18T17:43:59;15.70;87.42